createdAt,value
2018-03-17T13:27:38.462Z,-1.40
2018-03-17T13:30:13.762Z,-1.40
2018-03-17T13:33:04.553Z,-1.50
2018-03-17T13:35:46.260Z,-1.40
2018-03-17T13:38:16.367Z,-1.50
2018-03-17T13:40:56.844Z,-1.40
2018-03-17T13:43:33.767Z,-1.40
2018-03-17T13:46:11.340Z,-1.50
2018-03-17T13:48:49.048Z,-1.50
2018-03-17T13:51:26.754Z,-1.40
2018-03-17T13:54:04.746Z,-1.50
2018-03-17T13:56:41.992Z,-1.50
2018-03-17T13:59:17.916Z,-1.40
2018-03-17T14:01:55.657Z,-1.40
2018-03-17T14:04:32.316Z,-1.40
2018-03-17T14:07:09.417Z,-1.30
2018-03-17T14:09:49.520Z,-1.30
2018-03-17T14:12:28.649Z,-1.30
2018-03-17T14:15:05.424Z,-1.40
2018-03-17T14:17:43.278Z,-1.40
2018-03-17T14:20:20.197Z,-1.40
2018-03-17T14:23:03.141Z,-1.60
2018-03-17T14:25:40.491Z,-1.50
2018-03-17T14:28:17.763Z,-1.50
2018-03-17T14:30:56.414Z,-1.50
2018-03-17T14:33:36.665Z,-1.40
2018-03-17T14:36:13.485Z,-1.30
2018-03-17T14:38:49.991Z,-1.30
2018-03-17T14:41:27.457Z,-1.30
2018-03-17T14:44:04.228Z,-1.30
2018-03-17T14:46:43.573Z,-1.20
2018-03-17T14:49:21.214Z,-1.20
2018-03-17T14:51:58.820Z,-1.20
2018-03-17T14:54:34.921Z,-1.30
2018-03-17T14:57:12.269Z,-1.30
2018-03-17T14:59:51.699Z,-1.30
2018-03-17T15:02:30.685Z,-1.30
2018-03-17T15:05:07.603Z,-1.30
2018-03-17T15:07:42.316Z,-1.40
2018-03-17T15:10:20.058Z,-1.40
2018-03-17T15:12:57.242Z,-1.20
2018-03-17T15:15:34.019Z,-1.40
2018-03-17T15:18:12.700Z,-1.40
2018-03-17T15:20:49.247Z,-1.20
2018-03-17T15:23:25.421Z,-1.30
2018-03-17T15:26:02.524Z,-1.30
2018-03-17T15:28:38.970Z,-1.30
2018-03-17T15:31:16.757Z,-1.40
2018-03-17T15:33:52.355Z,-1.30
2018-03-17T15:36:28.366Z,-1.30
2018-03-17T15:39:05.083Z,-1.40
2018-03-17T15:41:42.856Z,-1.20
2018-03-17T15:44:20.086Z,-1.20
2018-03-17T15:46:56.965Z,-1.20
2018-03-17T15:49:33.043Z,-1.10
2018-03-17T15:52:08.866Z,-1.30
2018-03-17T15:54:44.485Z,-1.30
2018-03-17T15:57:21.373Z,-1.30
2018-03-17T16:00:00.735Z,-1.40
2018-03-17T16:02:38.934Z,-1.40
2018-03-17T16:05:14.930Z,-1.40
2018-03-17T16:07:52.998Z,-1.50
2018-03-17T16:10:36.020Z,-1.60
2018-03-17T16:13:14.417Z,-1.40
2018-03-17T16:15:53.633Z,-1.40
2018-03-17T16:18:31.872Z,-1.40
2018-03-17T16:21:07.446Z,-1.30
2018-03-17T16:23:45.009Z,-1.50
2018-03-17T16:26:22.900Z,-1.50
2018-03-17T16:29:06.837Z,-1.50
2018-03-17T16:31:43.239Z,-1.60
2018-03-17T16:34:20.558Z,-1.60
2018-03-17T16:36:58.113Z,-1.60
2018-03-17T16:39:34.787Z,-1.60
2018-03-17T16:42:11.979Z,-1.60
2018-03-17T16:44:48.455Z,-1.70
2018-03-17T16:47:24.105Z,-1.70
2018-03-17T16:50:01.745Z,-1.70
2018-03-17T16:52:37.927Z,-1.70
2018-03-17T16:55:17.466Z,-1.70
2018-03-17T16:57:53.487Z,-1.70
2018-03-17T17:00:29.710Z,-1.70
2018-03-17T17:03:06.614Z,-1.80
2018-03-17T17:05:49.917Z,-1.70
2018-03-17T17:08:25.746Z,-1.80
2018-03-17T17:11:08.912Z,-1.80
2018-03-17T17:13:45.663Z,-1.80
2018-03-17T17:16:21.240Z,-1.80
2018-03-17T17:18:59.773Z,-1.80
2018-03-17T17:21:36.284Z,-1.80
2018-03-17T17:24:13.568Z,-1.90
2018-03-17T17:26:50.541Z,-1.90
2018-03-17T17:29:22.778Z,-1.90
2018-03-17T17:31:59.330Z,-1.90
2018-03-17T17:34:35.687Z,-1.90
2018-03-17T17:37:11.320Z,-1.90
2018-03-17T17:39:50.597Z,-1.80
2018-03-17T17:42:26.633Z,-1.90
2018-03-17T17:45:04.047Z,-1.90
2018-03-17T17:47:40.472Z,-1.90
2018-03-17T17:50:16.854Z,-1.80
2018-03-17T17:52:53.445Z,-1.80
2018-03-17T17:55:31.159Z,-1.80
2018-03-17T17:58:09.329Z,-1.80
2018-03-17T18:00:46.300Z,-1.80
2018-03-17T18:03:24.625Z,-1.90
2018-03-17T18:06:00.379Z,-1.80
2018-03-17T18:08:36.161Z,-1.90
2018-03-17T18:11:14.192Z,-1.90
2018-03-17T18:13:51.224Z,-1.80
2018-03-17T18:16:26.394Z,-1.90
2018-03-17T18:19:03.944Z,-1.80
2018-03-17T18:21:39.486Z,-1.80
2018-03-17T18:24:10.926Z,-1.90
2018-03-17T18:26:47.858Z,-1.90
2018-03-17T18:29:23.721Z,-1.80
2018-03-17T18:32:00.780Z,-1.80
2018-03-17T18:34:37.963Z,-1.90
2018-03-17T18:37:13.330Z,-1.80
2018-03-17T18:39:50.810Z,-1.80
2018-03-17T18:42:28.030Z,-1.80
2018-03-17T18:45:06.752Z,-1.80
2018-03-17T18:47:42.830Z,-1.80
2018-03-17T18:50:21.371Z,-1.80
2018-03-17T18:52:57.347Z,-1.80
2018-03-17T18:55:33.921Z,-1.80
2018-03-17T18:58:10.049Z,-1.80
2018-03-17T19:00:49.284Z,-1.70
2018-03-17T19:03:27.165Z,-1.70
2018-03-17T19:06:05.716Z,-1.70
2018-03-17T19:08:41.204Z,-1.70
2018-03-17T19:11:21.007Z,-1.80
2018-03-17T19:14:00.105Z,-1.80
2018-03-17T19:16:43.101Z,-1.70
2018-03-17T19:19:21.756Z,-1.90
2018-03-17T19:22:04.702Z,-1.90
2018-03-17T19:24:42.795Z,-1.90
2018-03-17T19:27:20.961Z,-1.80
2018-03-17T19:29:57.653Z,-1.80
2018-03-17T19:32:34.365Z,-1.80
2018-03-17T19:35:12.468Z,-1.80
2018-03-17T19:37:49.977Z,-1.70
2018-03-17T19:40:28.345Z,-1.80
2018-03-17T19:43:05.984Z,-1.80
2018-03-17T19:45:45.070Z,-1.80
2018-03-17T19:48:21.187Z,-1.70
2018-03-17T19:50:58.129Z,-1.70
2018-03-17T19:53:40.651Z,-1.70
2018-03-17T19:56:16.751Z,-1.70
2018-03-17T19:58:53.462Z,-1.70
2018-03-17T20:01:29.240Z,-1.70
2018-03-17T20:04:05.037Z,-1.70
2018-03-17T20:06:42.295Z,-1.70
2018-03-17T20:09:19.557Z,-1.70
2018-03-17T20:12:01.522Z,-1.70
2018-03-17T20:14:38.315Z,-1.70
2018-03-17T20:17:14.519Z,-1.80
2018-03-17T20:19:54.241Z,-1.80
2018-03-17T20:22:31.416Z,-1.80
2018-03-17T20:25:08.427Z,-1.70
2018-03-17T20:27:46.297Z,-1.80
2018-03-17T20:30:24.226Z,-1.80
2018-03-17T20:33:04.766Z,-1.70
2018-03-17T20:35:40.368Z,-1.70
2018-03-17T20:38:16.936Z,-1.70
2018-03-17T20:40:55.751Z,-1.70
2018-03-17T20:43:33.315Z,-1.60
2018-03-17T20:46:11.304Z,-1.70
2018-03-17T20:48:50.911Z,-1.60
2018-03-17T20:51:27.123Z,-1.70
2018-03-17T20:53:57.209Z,-1.70
2018-03-17T20:56:34.922Z,-1.60
2018-03-17T20:59:11.161Z,-1.70
2018-03-17T21:01:46.581Z,-1.70
2018-03-17T21:04:22.812Z,-1.70
2018-03-17T21:06:57.987Z,-1.70
2018-03-17T21:09:34.717Z,-1.60
2018-03-17T21:12:12.641Z,-1.70
2018-03-17T21:14:55.310Z,-1.70
2018-03-17T21:17:31.071Z,-1.70
2018-03-17T21:20:06.842Z,-1.70
2018-03-17T21:22:44.595Z,-1.70
2018-03-17T21:25:23.229Z,-1.70
2018-03-17T21:27:58.919Z,-1.70
2018-03-17T21:30:38.026Z,-1.70
2018-03-17T21:33:15.564Z,-1.70
2018-03-17T21:35:52.267Z,-1.70
2018-03-17T21:38:27.601Z,-1.70
2018-03-17T21:41:04.345Z,-1.70
2018-03-17T21:43:41.082Z,-1.70
2018-03-17T21:46:17.205Z,-1.70
2018-03-17T21:48:55.178Z,-1.80
2018-03-17T21:51:33.647Z,-1.70
2018-03-17T21:54:13.011Z,-1.70
2018-03-17T21:56:50.185Z,-1.80
2018-03-17T21:59:20.863Z,-1.70
2018-03-17T22:01:59.469Z,-1.70
2018-03-17T22:04:38.896Z,-1.70
2018-03-17T22:07:16.073Z,-1.80
2018-03-17T22:09:52.932Z,-1.70
2018-03-17T22:12:29.075Z,-1.70
2018-03-17T22:15:08.070Z,-1.70
2018-03-17T22:17:46.916Z,-1.70
2018-03-17T22:20:22.233Z,-1.70
2018-03-17T22:22:58.894Z,-1.70
2018-03-17T22:25:35.640Z,-1.70
2018-03-17T22:28:13.596Z,-1.70
2018-03-17T22:30:50.207Z,-1.70
2018-03-17T22:33:25.400Z,-1.70
2018-03-17T22:36:00.604Z,-1.70
2018-03-17T22:38:37.866Z,-1.70
2018-03-17T22:41:13.795Z,-1.70
2018-03-17T22:43:49.523Z,-1.60
2018-03-17T22:46:26.706Z,-1.60
2018-03-17T22:49:02.052Z,-1.60
2018-03-17T22:51:39.020Z,-1.70
2018-03-17T22:54:16.165Z,-1.60
2018-03-17T22:56:52.518Z,-1.70
2018-03-17T22:59:28.097Z,-1.70
2018-03-17T23:02:08.851Z,-1.60
2018-03-17T23:04:46.794Z,-1.70
2018-03-17T23:07:29.291Z,-1.60
2018-03-17T23:10:06.179Z,-1.60
2018-03-17T23:12:41.381Z,-1.60
2018-03-17T23:15:18.279Z,-1.70
2018-03-17T23:17:57.127Z,-1.60
2018-03-17T23:20:33.862Z,-1.60
2018-03-17T23:23:10.990Z,-1.60
2018-03-17T23:25:48.229Z,-1.60
2018-03-17T23:28:25.013Z,-1.50
2018-03-17T23:31:04.987Z,-1.50
2018-03-17T23:33:40.055Z,-1.40
2018-03-17T23:36:19.069Z,-1.50
2018-03-17T23:38:57.216Z,-1.50
2018-03-17T23:41:40.708Z,-1.60
2018-03-17T23:44:18.280Z,-1.50
2018-03-17T23:46:55.610Z,-1.60
2018-03-17T23:49:33.727Z,-1.60
2018-03-17T23:52:13.604Z,-1.50
2018-03-17T23:54:51.468Z,-1.50
2018-03-17T23:57:29.805Z,-1.50
